Time;durP1;ratioP1;P1;durP2;ratioP2;P2;SDS_P1;SDS_P2;PMS_P1;PMS_P2;Temp;Humidity;BMP_temperature;BMP_pressure;BME280_temperature;BME280_humidity;BME280_pressure;Samples;Min_cycle;Max_cycle;Signal;HPM_P1;HPM_P2
2024/01/25 00:01:55;;;;;;;;;;;;;;;-144.99;100.00;52594.84;4993195;28;20013;-66
2024/01/25 00:04:22;;;;;;;;;;;;;;;-144.99;100.00;52603.00;4991929;28;19925;-65
2024/01/25 00:06:49;;;;;;;;;;;;;;;-144.99;100.00;52598.94;4988997;28;20049;-66
2024/01/25 00:09:15;;;;;;;;;;;;;;;-144.99;100.00;52533.69;4985918;28;19953;-67
2024/01/25 00:11:43;;;;;;;;;;;;;;;-144.99;100.00;52611.16;4991262;28;19936;-67
2024/01/25 00:14:10;;;;;;;;;;;;;;;-144.99;100.00;52586.69;4993389;28;20387;-68
2024/01/25 00:16:36;;;;;;;;;;;;;;;-144.99;100.00;52615.25;4988818;28;20737;-67
2024/01/25 00:19:02;;;;;;;;;;;;;;;-144.99;100.00;52586.69;4982505;28;19949;-66
2024/01/25 00:21:30;;;;;;;;;;;;;;;-144.99;100.00;52615.25;4989273;28;20029;-66
2024/01/25 00:23:56;;;;;;;;;;;;;;;-144.99;100.00;52627.47;4985447;28;19945;-67
2024/01/25 00:26:22;;;;;;;;;;;;;;;-144.99;100.00;52590.78;4991612;28;20427;-67
2024/01/25 00:28:49;;;;;;;;;;;;;;;-144.99;100.00;52558.16;4996013;28;19961;-70
2024/01/25 00:31:15;;;;;;;;;;;;;;;-144.99;100.00;52600.97;4990276;28;19929;-70
2024/01/25 00:33:42;;;;;;;;;;;;;;;-144.99;100.00;52586.69;4992664;28;19937;-70
2024/01/25 00:36:09;;;;;;;;;;;;;;;-144.99;100.00;52554.09;4994253;28;19964;-67
2024/01/25 00:38:37;;;;;;;;;;;;;;;-144.99;100.00;52574.47;4994389;28;19937;-66
2024/01/25 00:41:07;;;;;;;;;;;;;;;-144.99;100.00;52558.16;4986236;28;20012;-66
2024/01/25 00:43:34;;;;;;;;;;;;;;;-144.99;100.00;52590.78;4989382;28;19926;-66
2024/01/25 00:46:01;;;;;;;;;;;;;;;-144.99;100.00;52598.94;4993279;28;19968;-66
2024/01/25 00:48:27;;;;;;;;;;;;;;;-144.99;100.00;52586.69;4990219;28;20454;-66
2024/01/25 00:50:54;;;;;;;;;;;;;;;-144.99;100.00;52590.78;4987515;28;19926;-66
2024/01/25 00:53:21;;;;;;;;;;;;;;;-144.99;100.00;52570.38;4987733;28;19926;-66
2024/01/25 00:55:49;;;;;;;;;;;;;;;-144.99;100.00;52578.53;4992994;28;19972;-66
2024/01/25 00:58:16;;;;;;;;;;;;;;;-144.99;100.00;52554.09;4989367;28;20583;-66
2024/01/25 01:00:43;;;;;;;;;;;;;;;-144.99;100.00;52617.28;4988191;28;19930;-66
2024/01/25 01:03:10;;;;;;;;;;;;;;;-144.99;100.00;52625.44;4985270;28;19999;-66
2024/01/25 01:05:37;;;;;;;;;;;;;;;-144.99;100.00;52578.53;4993483;28;20319;-67
2024/01/25 01:08:04;;;;;;;;;;;;;;;-144.99;100.00;52594.84;4993065;28;20219;-67
2024/01/25 01:10:31;;;;;;;;;;;;;;;-144.99;100.00;52590.78;4998181;28;20423;-67
2024/01/25 01:12:58;;;;;;;;;;;;;;;-144.99;100.00;52598.94;4990385;28;19926;-67
2024/01/25 01:15:25;;;;;;;;;;;;;;;-144.99;100.00;52572.44;4997039;28;20540;-67
2024/01/25 01:17:51;;;;;;;;;;;;;;;-144.99;100.00;52582.63;4995932;28;19983;-65
2024/01/25 01:20:18;;;;;;;;;;;;;;;-144.99;100.00;52564.28;4992709;28;19957;-65
2024/01/25 01:22:45;;;;;;;;;;;;;;;-144.99;100.00;52596.88;4991730;28;19925;-63
2024/01/25 01:25:11;;;;;;;;;;;;;;;-144.99;100.00;52564.28;4997145;28;19930;-63
2024/01/25 01:27:38;;;;;;;;;;;;;;;-144.99;100.00;52554.09;4992906;28;20039;-63
2024/01/25 01:30:08;;;;;;;;;;;;;;;-144.99;100.00;52578.53;4991719;28;19932;-63
2024/01/25 01:32:34;;;;;;;;;;;;;;;-144.99;100.00;52590.78;4992208;28;19964;-64
2024/01/25 01:35:01;;;;;;;;;;;;;;;-144.99;100.00;52562.25;4995136;28;20515;-64
2024/01/25 01:37:27;;;;;;;;;;;;;;;-144.99;100.00;52607.09;4991518;28;19926;-63
2024/01/25 01:39:55;;;;;;;;;;;;;;;-144.99;100.00;52558.16;4991545;28;19932;-63
2024/01/25 01:42:22;;;;;;;;;;;;;;;-144.99;100.00;52586.69;4992123;28;19929;-73
2024/01/25 01:44:49;;;;;;;;;;;;;;;-144.99;100.00;52578.53;4990061;28;20012;-73
2024/01/25 01:47:17;;;;;;;;;;;;;;;-144.99;100.00;52586.69;4990259;28;19984;-76
2024/01/25 01:49:43;;;;;;;;;;;;;;;-144.99;100.00;52584.66;4994231;28;19992;-74
2024/01/25 01:52:10;;;;;;;;;;;;;;;-144.99;100.00;52580.59;4992162;28;19965;-73
2024/01/25 01:54:37;;;;;;;;;;;;;;;-144.99;100.00;52558.16;4986086;28;20025;-74
2024/01/25 01:57:04;;;;;;;;;;;;;;;-144.99;100.00;52554.09;4989463;28;19949;-67
2024/01/25 01:59:31;;;;;;;;;;;;;;;-144.99;100.00;52533.69;4988032;28;20111;-67
2024/01/25 02:01:58;;;;;;;;;;;;;;;-144.99;100.00;52586.69;4993871;28;20033;-67
2024/01/25 02:04:25;;;;;;;;;;;;;;;-144.99;100.00;52570.38;4987290;28;19952;-67
2024/01/25 02:06:52;;;;;;;;;;;;;;;-144.99;100.00;52607.09;4991278;28;19974;-66
2024/01/25 02:09:19;;;;;;;;;;;;;;;-144.99;100.00;52562.25;4989195;28;19925;-71
2024/01/25 02:11:45;;;;;;;;;;;;;;;-144.99;100.00;52598.94;4987286;28;19965;-71
2024/01/25 02:14:12;;;;;;;;;;;;;;;-144.99;100.00;52570.38;4993363;28;19926;-70
2024/01/25 02:16:39;;;;;;;;;;;;;;;-144.99;100.00;52574.47;4998486;28;20035;-71
2024/01/25 02:19:06;;;;;;;;;;;;;;;-144.99;100.00;52574.47;4989416;28;19969;-71
2024/01/25 02:21:33;;;;;;;;;;;;;;;-144.99;100.00;52554.09;4992107;28;19976;-67
2024/01/25 02:24:01;;;;;;;;;;;;;;;-144.99;100.00;52570.38;4992716;28;20024;-69
2024/01/25 02:26:28;;;;;;;;;;;;;;;-144.99;100.00;52603.00;4998215;28;19925;-69
2024/01/25 02:28:54;;;;;;;;;;;;;;;-144.99;100.00;52554.09;4993263;28;20017;-71
2024/01/25 02:31:21;;;;;;;;;;;;;;;-144.99;100.00;52578.53;4996453;28;19995;-70
2024/01/25 02:33:47;;;;;;;;;;;;;;;-144.99;100.00;52586.69;4993209;28;19949;-70
2024/01/25 02:36:13;;;;;;;;;;;;;;;-144.99;100.00;52566.31;4991666;28;20389;-70
2024/01/25 02:38:40;;;;;;;;;;;;;;;-144.99;100.00;52588.75;4991886;28;20025;-68
2024/01/25 02:41:08;;;;;;;;;;;;;;;-144.99;100.00;52623.38;4991936;28;20335;-70
2024/01/25 02:43:34;;;;;;;;;;;;;;;-144.99;100.00;52611.16;4991556;28;19984;-70
2024/01/25 02:46:01;;;;;;;;;;;;;;;-144.99;100.00;52594.84;4993122;28;20029;-68
2024/01/25 02:48:27;;;;;;;;;;;;;;;-144.99;100.00;52568.34;4989062;28;19925;-69
2024/01/25 02:50:54;;;;;;;;;;;;;;;-144.99;100.00;52588.75;4982501;28;20017;-66
2024/01/25 02:53:20;;;;;;;;;;;;;;;-144.99;100.00;52594.84;4990609;28;20452;-64
2024/01/25 02:55:46;;;;;;;;;;;;;;;-144.99;100.00;52576.50;4991269;28;19988;-64
2024/01/25 02:58:14;;;;;;;;;;;;;;;-144.99;100.00;52521.47;4989686;28;19989;-64
2024/01/25 03:00:41;;;;;;;;;;;;;;;-144.99;100.00;52570.38;4989410;28;19953;-64
2024/01/25 03:03:07;;;;;;;;;;;;;;;-144.99;100.00;52562.25;4990432;28;19965;-65
2024/01/25 03:05:34;;;;;;;;;;;;;;;-144.99;100.00;52566.31;4993072;28;19968;-65
2024/01/25 03:08:01;;;;;;;;;;;;;;;-144.99;100.00;52586.69;4989304;28;20331;-64
2024/01/25 03:10:27;;;;;;;;;;;;;;;-144.99;100.00;52558.16;4996410;28;20495;-64
2024/01/25 03:12:53;;;;;;;;;;;;;;;-144.99;100.00;52582.63;4985581;28;20422;-64
2024/01/25 03:15:21;;;;;;;;;;;;;;;-144.99;100.00;52578.53;4998571;28;19960;-65
2024/01/25 03:17:48;;;;;;;;;;;;;;;-144.99;100.00;52529.63;4990566;28;19982;-65
2024/01/25 03:20:14;;;;;;;;;;;;;;;-144.99;100.00;52578.53;4988381;28;19957;-64
2024/01/25 03:22:41;;;;;;;;;;;;;;;-144.99;100.00;52578.53;4989632;28;19965;-65
2024/01/25 03:25:08;;;;;;;;;;;;;;;-144.99;100.00;52566.31;4989558;28;19976;-64
2024/01/25 03:27:35;;;;;;;;;;;;;;;-144.99;100.00;52554.09;4991965;28;20002;-65
2024/01/25 03:30:01;;;;;;;;;;;;;;;-144.99;100.00;52558.16;4987881;28;20047;-65
2024/01/25 03:32:29;;;;;;;;;;;;;;;-144.99;100.00;52545.94;4992669;28;19988;-65
2024/01/25 03:34:56;;;;;;;;;;;;;;;-144.99;100.00;52576.50;4994729;28;19934;-65
2024/01/25 03:37:22;;;;;;;;;;;;;;;-144.99;100.00;52570.38;4990090;28;19972;-68
2024/01/25 03:39:48;;;;;;;;;;;;;;;-144.99;100.00;52570.38;4988116;28;20380;-66
2024/01/25 03:42:14;;;;;;;;;;;;;;;-144.99;100.00;52574.47;4989170;28;19992;-66
2024/01/25 03:44:42;;;;;;;;;;;;;;;-144.99;100.00;52570.38;4989525;28;19929;-67
2024/01/25 03:47:08;;;;;;;;;;;;;;;-144.99;100.00;52550.00;4994950;28;19948;-67
2024/01/25 03:49:36;;;;;;;;;;;;;;;-144.99;100.00;52598.94;4989857;28;19930;-66
2024/01/25 03:52:03;;;;;;;;;;;;;;;-144.99;100.00;52562.25;4988579;28;19991;-65
2024/01/25 03:54:29;;;;;;;;;;;;;;;-144.99;100.00;52574.47;4993969;28;19961;-66
2024/01/25 03:56:56;;;;;;;;;;;;;;;-144.99;100.00;52572.44;4989049;28;20020;-65
2024/01/25 03:59:22;;;;;;;;;;;;;;;-144.99;100.00;52574.47;4989336;28;19968;-65
2024/01/25 04:01:49;;;;;;;;;;;;;;;-144.99;100.00;52554.09;4991156;28;19926;-67
2024/01/25 04:04:16;;;;;;;;;;;;;;;-144.99;100.00;52562.25;4990275;28;19987;-69
2024/01/25 04:06:45;;;;;;;;;;;;;;;-144.99;100.00;52598.94;4985422;28;20429;-68
2024/01/25 04:09:12;;;;;;;;;;;;;;;-144.99;100.00;52554.09;4989341;28;20355;-68
2024/01/25 04:11:38;;;;;;;;;;;;;;;-144.99;100.00;52552.03;4993931;28;19965;-65
2024/01/25 04:14:05;;;;;;;;;;;;;;;-144.99;100.00;52594.84;4988155;28;20386;-65
2024/01/25 04:16:31;;;;;;;;;;;;;;;-144.99;100.00;52550.00;4989349;28;20067;-64
2024/01/25 04:18:58;;;;;;;;;;;;;;;-144.99;100.00;52603.00;4989969;28;19926;-65
2024/01/25 04:21:24;;;;;;;;;;;;;;;-144.99;100.00;52550.00;4985951;28;20024;-68
2024/01/25 04:23:52;;;;;;;;;;;;;;;-144.99;100.00;52564.28;4987776;28;19957;-71
2024/01/25 04:26:19;;;;;;;;;;;;;;;-144.99;100.00;52566.31;4989065;28;20443;-66
2024/01/25 04:28:45;;;;;;;;;;;;;;;-144.99;100.00;52578.53;4988566;28;19941;-65
2024/01/25 04:31:11;;;;;;;;;;;;;;;-144.99;100.00;52547.97;4986271;28;20251;-64
2024/01/25 04:33:39;;;;;;;;;;;;;;;-144.99;100.00;52582.63;4990855;28;20004;-65
2024/01/25 04:36:05;;;;;;;;;;;;;;;-144.99;100.00;52578.53;4987593;28;19929;-65
2024/01/25 04:38:32;;;;;;;;;;;;;;;-144.99;100.00;52590.78;4993682;28;19926;-65
2024/01/25 04:40:59;;;;;;;;;;;;;;;-144.99;100.00;52554.09;4986455;28;19999;-64
2024/01/25 04:43:26;;;;;;;;;;;;;;;-144.99;100.00;52570.38;4986448;28;20016;-74
2024/01/25 04:45:53;;;;;;;;;;;;;;;-144.99;100.00;52566.31;4986188;28;20292;-74
2024/01/25 04:48:19;;;;;;;;;;;;;;;-144.99;100.00;52541.84;4984964;28;19977;-74
2024/01/25 04:50:46;;;;;;;;;;;;;;;-144.99;100.00;52596.88;4989121;28;19929;-76
2024/01/25 04:53:12;;;;;;;;;;;;;;;-144.99;100.00;52572.44;4983414;28;19960;-74
2024/01/25 04:55:39;;;;;;;;;;;;;;;-144.99;100.00;52570.38;4988432;28;19962;-73
2024/01/25 04:58:06;;;;;;;;;;;;;;;-144.99;100.00;52537.78;4988981;28;20420;-73
2024/01/25 05:00:33;;;;;;;;;;;;;;;-144.99;100.00;52590.78;4992392;28;19926;-72
2024/01/25 05:03:00;;;;;;;;;;;;;;;-144.99;100.00;52582.63;4987933;28;19925;-73
2024/01/25 05:05:26;;;;;;;;;;;;;;;-144.99;100.00;52580.59;4984103;28;19932;-73
2024/01/25 05:07:53;;;;;;;;;;;;;;;-144.99;100.00;52570.38;4986807;28;19926;-72
2024/01/25 05:10:19;;;;;;;;;;;;;;;-144.99;100.00;52578.53;4988158;28;20004;-75
2024/01/25 05:12:46;;;;;;;;;;;;;;;-144.99;100.00;52586.69;4987700;28;20446;-78
2024/01/25 05:15:14;;;;;;;;;;;;;;;-144.99;100.00;52554.09;4988729;28;20322;-75
2024/01/25 05:17:40;;;;;;;;;;;;;;;-144.99;100.00;52598.94;4982521;28;20396;-75
2024/01/25 05:20:07;;;;;;;;;;;;;;;-144.99;100.00;52562.25;4984218;28;19996;-77
2024/01/25 05:22:39;;;;;;;;;;;;;;;-144.99;100.00;52598.94;4987033;28;19929;-74
2024/01/25 05:25:08;;;;;;;;;;;;;;;-144.99;100.00;52603.00;4982474;28;19992;-76
2024/01/25 05:27:34;;;;;;;;;;;;;;;-144.99;100.00;52598.94;4988969;28;20043;-72
2024/01/25 05:30:00;;;;;;;;;;;;;;;-144.99;100.00;52603.00;4987362;28;19934;-72
2024/01/25 05:32:28;;;;;;;;;;;;;;;-144.99;100.00;52570.38;4985550;28;19932;-72
2024/01/25 05:34:55;;;;;;;;;;;;;;;-144.99;100.00;52578.53;4989976;28;19926;-62
2024/01/25 05:37:21;;;;;;;;;;;;;;;-144.99;100.00;52537.78;4984281;28;19926;-67
2024/01/25 05:39:48;;;;;;;;;;;;;;;-144.99;100.00;52590.78;4991266;28;20005;-67
2024/01/25 05:42:14;;;;;;;;;;;;;;;-144.99;100.00;52578.53;4986414;28;20398;-67
2024/01/25 05:44:41;;;;;;;;;;;;;;;-144.99;100.00;52603.00;4988874;28;19936;-72
2024/01/25 05:47:07;;;;;;;;;;;;;;;-144.99;100.00;52550.00;4989095;28;19953;-72
2024/01/25 05:49:35;;;;;;;;;;;;;;;-144.99;100.00;52590.78;4993728;28;19925;-72
2024/01/25 05:52:02;;;;;;;;;;;;;;;-144.99;100.00;52592.81;4987737;28;20379;-72
2024/01/25 05:54:28;;;;;;;;;;;;;;;-144.99;100.00;52550.00;4985303;28;19926;-72
2024/01/25 05:56:55;;;;;;;;;;;;;;;-144.99;100.00;52570.38;4991116;28;19926;-72
2024/01/25 05:59:21;;;;;;;;;;;;;;;-144.99;100.00;52570.38;4990297;28;20280;-72
2024/01/25 06:01:48;;;;;;;;;;;;;;;-144.99;100.00;52582.63;4991257;28;20379;-72
2024/01/25 06:04:15;;;;;;;;;;;;;;;-144.99;100.00;52574.47;4991659;28;19985;-72
2024/01/25 06:06:42;;;;;;;;;;;;;;;-144.99;100.00;52574.47;4990722;28;20040;-72
2024/01/25 06:09:10;;;;;;;;;;;;;;;-144.99;100.00;52562.25;4984479;28;19930;-72
2024/01/25 06:11:37;;;;;;;;;;;;;;;-144.99;100.00;52590.78;4990889;28;19970;-72
2024/01/25 06:14:04;;;;;;;;;;;;;;;-144.99;100.00;52578.53;4989694;28;20340;-71
2024/01/25 06:16:30;;;;;;;;;;;;;;;-144.99;100.00;52507.19;4989588;28;19965;-70
2024/01/25 06:18:58;;;;;;;;;;;;;;;-144.99;100.00;52598.94;4989307;28;20041;-71
2024/01/25 06:21:24;;;;;;;;;;;;;;;-144.99;100.00;52582.63;4991672;28;19977;-71
2024/01/25 06:23:52;;;;;;;;;;;;;;;-144.99;100.00;52594.84;4994163;28;19968;-72
2024/01/25 06:26:19;;;;;;;;;;;;;;;-144.99;100.00;52578.53;4989108;28;20012;-72
2024/01/25 06:28:45;;;;;;;;;;;;;;;-144.99;100.00;52574.47;4989063;28;19961;-72
2024/01/25 06:31:12;;;;;;;;;;;;;;;-144.99;100.00;52550.00;4997565;28;19972;-72
2024/01/25 06:33:38;;;;;;;;;;;;;;;-144.99;100.00;52574.47;4987899;28;20369;-72
2024/01/25 06:36:05;;;;;;;;;;;;;;;-144.99;100.00;52603.00;4985996;28;19976;-71
2024/01/25 06:38:31;;;;;;;;;;;;;;;-144.99;100.00;52598.94;4988988;28;20013;-71
2024/01/25 06:40:59;;;;;;;;;;;;;;;-144.99;100.00;52594.84;4985699;28;20429;-72
2024/01/25 06:43:26;;;;;;;;;;;;;;;-144.99;100.00;52576.50;4989790;28;20013;-71
2024/01/25 06:45:52;;;;;;;;;;;;;;;-144.99;100.00;52570.38;4991511;28;19960;-71
2024/01/25 06:48:19;;;;;;;;;;;;;;;-144.99;100.00;52582.63;4986856;28;19946;-71
2024/01/25 06:50:45;;;;;;;;;;;;;;;-144.99;100.00;52607.09;4996137;28;19953;-71
2024/01/25 06:53:12;;;;;;;;;;;;;;;-144.99;100.00;52590.78;4991326;28;19925;-72
2024/01/25 06:55:38;;;;;;;;;;;;;;;-144.99;100.00;52566.31;4988282;28;20374;-71
2024/01/25 06:58:06;;;;;;;;;;;;;;;-144.99;100.00;52554.09;4990952;28;19990;-71
2024/01/25 07:00:33;;;;;;;;;;;;;;;-144.99;100.00;52582.63;4990276;28;19956;-71
2024/01/25 07:02:59;;;;;;;;;;;;;;;-144.99;100.00;52574.47;4990493;28;19996;-71
2024/01/25 07:05:26;;;;;;;;;;;;;;;-144.99;100.00;52580.59;4985366;28;20008;-71
2024/01/25 07:07:53;;;;;;;;;;;;;;;-144.99;100.00;52598.94;5000703;28;19953;-72
2024/01/25 07:10:22;;;;;;;;;;;;;;;-144.99;100.00;52603.00;4997393;28;19979;-72
2024/01/25 07:12:48;;;;;;;;;;;;;;;-144.99;100.00;52562.25;4983979;28;19941;-71
2024/01/25 07:15:17;;;;;;;;;;;;;;;-144.99;100.00;52594.84;4995744;28;19956;-72
2024/01/25 07:17:44;;;;;;;;;;;;;;;-144.99;100.00;52600.97;4987687;28;19988;-72
2024/01/25 07:20:10;;;;;;;;;;;;;;;-144.99;100.00;52558.16;4986502;28;20011;-71
2024/01/25 07:22:37;;;;;;;;;;;;;;;-144.99;100.00;52582.63;4986683;28;19979;-72
2024/01/25 07:25:04;;;;;;;;;;;;;;;-144.99;100.00;52611.16;4989733;28;20224;-72
2024/01/25 07:27:30;;;;;;;;;;;;;;;-144.99;100.00;52578.53;4989013;28;20018;-71
2024/01/25 07:29:57;;;;;;;;;;;;;;;-144.99;100.00;52637.66;4992866;28;20011;-71
2024/01/25 07:32:25;;;;;;;;;;;;;;;-144.99;100.00;52558.16;4993268;28;19926;-71
2024/01/25 07:34:51;;;;;;;;;;;;;;;-144.99;100.00;52572.44;4988628;28;20024;-72
2024/01/25 07:37:18;;;;;;;;;;;;;;;-144.99;100.00;52603.00;4988466;28;20374;-72
2024/01/25 07:39:45;;;;;;;;;;;;;;;-144.99;100.00;52574.47;4988563;28;19949;-71
2024/01/25 07:42:12;;;;;;;;;;;;;;;-144.99;100.00;52560.19;4989939;28;19933;-72
2024/01/25 07:44:38;;;;;;;;;;;;;;;-144.99;100.00;52572.44;4990440;28;19926;-72
2024/01/25 07:47:05;;;;;;;;;;;;;;;-144.99;100.00;52566.31;4995190;28;19992;-72
2024/01/25 07:49:31;;;;;;;;;;;;;;;-144.99;100.00;52584.66;4989119;28;19988;-72
2024/01/25 07:51:58;;;;;;;;;;;;;;;-144.99;100.00;52586.69;4991602;28;19926;-72
2024/01/25 07:54:24;;;;;;;;;;;;;;;-144.99;100.00;52578.53;4991660;28;19938;-72
2024/01/25 07:56:51;;;;;;;;;;;;;;;-144.99;100.00;52578.53;4989001;28;19995;-72
2024/01/25 07:59:17;;;;;;;;;;;;;;;-144.99;100.00;52554.09;4988432;28;19976;-72
2024/01/25 08:01:44;;;;;;;;;;;;;;;-144.99;100.00;52590.78;4991063;28;19930;-72
2024/01/25 08:04:11;;;;;;;;;;;;;;;-144.99;100.00;52562.25;4995200;28;20161;-73
2024/01/25 08:06:38;;;;;;;;;;;;;;;-144.99;100.00;52556.13;4990221;28;19968;-72
2024/01/25 08:09:05;;;;;;;;;;;;;;;-144.99;100.00;52570.38;4988285;28;19929;-72
2024/01/25 08:11:31;;;;;;;;;;;;;;;-144.99;100.00;52499.06;4981044;28;19926;-72
2024/01/25 08:13:58;;;;;;;;;;;;;;;-144.99;100.00;52596.88;4987882;28;19926;-72
2024/01/25 08:16:24;;;;;;;;;;;;;;;-144.99;100.00;52590.78;4987010;28;20410;-71
2024/01/25 08:18:51;;;;;;;;;;;;;;;-144.99;100.00;52564.28;4990154;28;19980;-72
2024/01/25 08:21:18;;;;;;;;;;;;;;;-144.99;100.00;52564.28;4988447;28;19929;-72
2024/01/25 08:23:46;;;;;;;;;;;;;;;-144.99;100.00;52566.31;4990546;28;19930;-72
2024/01/25 08:26:13;;;;;;;;;;;;;;;-144.99;100.00;52566.31;4988488;28;20230;-72
2024/01/25 08:28:41;;;;;;;;;;;;;;;-144.99;100.00;52582.63;4990307;28;20182;-72
2024/01/25 08:31:08;;;;;;;;;;;;;;;-144.99;100.00;52574.47;4986526;28;19929;-72
2024/01/25 08:33:34;;;;;;;;;;;;;;;-144.99;100.00;52560.19;4989826;28;19984;-72
2024/01/25 08:36:01;;;;;;;;;;;;;;;-144.99;100.00;52578.53;4998448;28;19968;-70
2024/01/25 08:38:27;;;;;;;;;;;;;;;-144.99;100.00;52558.16;5010623;28;19960;-72
2024/01/25 08:40:55;;;;;;;;;;;;;;;-144.99;100.00;52586.69;4987442;28;20369;-71
2024/01/25 08:43:22;;;;;;;;;;;;;;;-144.99;100.00;52566.31;4987569;28;20365;-72
2024/01/25 08:45:48;;;;;;;;;;;;;;;-144.99;100.00;52560.19;4990083;28;20032;-72
2024/01/25 08:48:15;;;;;;;;;;;;;;;-144.99;100.00;52545.94;4989972;28;19961;-73
2024/01/25 08:50:42;;;;;;;;;;;;;;;-144.99;100.00;52545.94;4987226;28;20032;-72
2024/01/25 08:53:08;;;;;;;;;;;;;;;-144.99;100.00;52584.66;4994399;28;19941;-72
2024/01/25 08:55:35;;;;;;;;;;;;;;;-144.99;100.00;52582.63;4985222;28;19934;-72
2024/01/25 08:58:03;;;;;;;;;;;;;;;-144.99;100.00;52554.09;4990799;28;19933;-72
2024/01/25 09:00:29;;;;;;;;;;;;;;;-144.99;100.00;52570.38;4987260;28;20030;-72
2024/01/25 09:02:56;;;;;;;;;;;;;;;-144.99;100.00;52543.91;4984904;28;19992;-72
2024/01/25 09:05:23;;;;;;;;;;;;;;;-144.99;100.00;52558.16;4987129;28;19926;-72
2024/01/25 09:07:50;;;;;;;;;;;;;;;-144.99;100.00;52611.16;4988387;28;19965;-72
2024/01/25 09:10:17;;;;;;;;;;;;;;;-144.99;100.00;52558.16;4989160;28;20284;-72
2024/01/25 09:12:43;;;;;;;;;;;;;;;-144.99;100.00;52547.97;4988980;28;20335;-72
2024/01/25 09:15:11;;;;;;;;;;;;;;;-144.99;100.00;52558.16;4985479;28;19926;-72
2024/01/25 09:17:38;;;;;;;;;;;;;;;-144.99;100.00;52574.47;4989038;28;19961;-73
2024/01/25 09:20:05;;;;;;;;;;;;;;;-144.99;100.00;52554.09;4989936;28;19926;-73
2024/01/25 09:22:31;;;;;;;;;;;;;;;-144.99;100.00;52547.97;4992305;28;19965;-72
2024/01/25 09:24:58;;;;;;;;;;;;;;;-144.99;100.00;52588.75;5004891;28;19925;-73
2024/01/25 09:27:24;;;;;;;;;;;;;;;-144.99;100.00;52537.78;4995148;28;19926;-71
2024/01/25 09:29:51;;;;;;;;;;;;;;;-144.99;100.00;52537.78;4993428;28;20351;-73
2024/01/25 09:32:20;;;;;;;;;;;;;;;-144.99;100.00;52578.53;4985554;28;20451;-71
2024/01/25 09:34:47;;;;;;;;;;;;;;;-144.99;100.00;52562.25;4994013;28;19969;-71
2024/01/25 09:37:14;;;;;;;;;;;;;;;-144.99;100.00;52578.53;4993351;28;20304;-72
2024/01/25 09:39:41;;;;;;;;;;;;;;;-144.99;100.00;52560.19;4990713;28;20006;-72
2024/01/25 09:42:08;;;;;;;;;;;;;;;-144.99;100.00;52611.16;4992825;28;20257;-72
2024/01/25 09:44:35;;;;;;;;;;;;;;;-144.99;100.00;52578.53;4993993;28;19942;-72
2024/01/25 09:47:05;;;;;;;;;;;;;;;-144.99;100.00;52554.09;4997413;28;19972;-72
2024/01/25 09:49:33;;;;;;;;;;;;;;;-144.99;100.00;52586.69;4990806;28;19932;-72
2024/01/25 09:52:03;;;;;;;;;;;;;;;-144.99;100.00;52545.94;4983887;28;19930;-72
2024/01/25 09:54:31;;;;;;;;;;;;;;;-144.99;100.00;52521.47;4992843;28;19938;-72
2024/01/25 09:56:58;;;;;;;;;;;;;;;-144.99;100.00;52570.38;4991905;28;19976;-72
2024/01/25 09:59:24;;;;;;;;;;;;;;;-144.99;100.00;52572.44;4989541;28;19934;-73
2024/01/25 10:01:50;;;;;;;;;;;;;;;-144.99;100.00;52574.47;4995225;28;20016;-71
2024/01/25 10:04:19;;;;;;;;;;;;;;;-144.99;100.00;52550.00;4992785;28;20004;-73
2024/01/25 10:06:47;;;;;;;;;;;;;;;-144.99;100.00;52560.19;4989932;28;20036;-72
2024/01/25 10:09:14;;;;;;;;;;;;;;;-144.99;100.00;52570.38;4995381;28;19973;-73
2024/01/25 10:11:40;;;;;;;;;;;;;;;-144.99;100.00;52537.78;4997129;28;19926;-72
2024/01/25 10:14:08;;;;;;;;;;;;;;;-144.99;100.00;52582.63;4989508;28;19992;-72
2024/01/25 10:16:34;;;;;;;;;;;;;;;-144.99;100.00;52545.94;4983071;28;19966;-73
2024/01/25 10:19:02;;;;;;;;;;;;;;;-144.99;100.00;52558.16;4992352;28;19926;-73
2024/01/25 10:21:29;;;;;;;;;;;;;;;-144.99;100.00;52582.63;4991569;28;20388;-73
2024/01/25 10:23:58;;;;;;;;;;;;;;;-144.99;100.00;52586.69;4996400;28;19984;-73
2024/01/25 10:26:26;;;;;;;;;;;;;;;-144.99;100.00;52574.47;4988756;28;19940;-73
2024/01/25 10:28:53;;;;;;;;;;;;;;;-144.99;100.00;52537.78;4992167;28;19973;-72
2024/01/25 10:31:20;;;;;;;;;;;;;;;-144.99;100.00;52529.63;4992489;28;19930;-72
2024/01/25 10:33:48;;;;;;;;;;;;;;;-144.99;100.00;52533.69;4990826;28;19969;-72
2024/01/25 10:36:14;;;;;;;;;;;;;;;-144.99;100.00;52545.94;4991844;28;19926;-71
2024/01/25 10:38:43;;;;;;;;;;;;;;;-144.99;100.00;52576.50;4996053;28;19930;-71
2024/01/25 10:41:11;;;;;;;;;;;;;;;-144.99;100.00;52523.50;4989144;28;20045;-71
2024/01/25 10:43:37;;;;;;;;;;;;;;;-144.99;100.00;52545.94;4990832;28;20063;-71
2024/01/25 10:46:04;;;;;;;;;;;;;;;-144.99;100.00;52545.94;4990962;28;20381;-72
2024/01/25 10:48:30;;;;;;;;;;;;;;;-144.99;100.00;52558.16;4991028;28;19934;-71
2024/01/25 10:50:59;;;;;;;;;;;;;;;-144.99;100.00;52533.69;4989249;28;20028;-71
2024/01/25 10:53:26;;;;;;;;;;;;;;;-144.99;100.00;52513.31;4989059;28;20015;-73
2024/01/25 10:55:53;;;;;;;;;;;;;;;-144.99;100.00;52578.53;4996439;28;19926;-72
2024/01/25 10:58:20;;;;;;;;;;;;;;;-144.99;100.00;52550.00;4987901;28;19960;-72
2024/01/25 11:00:52;;;;;;;;;;;;;;;-144.99;100.00;52537.78;4989124;28;19926;-71
2024/01/25 11:03:19;;;;;;;;;;;;;;;-144.99;100.00;52582.63;4986776;28;19925;-71
2024/01/25 11:05:46;;;;;;;;;;;;;;;-144.99;100.00;52541.84;4993426;28;19980;-71
2024/01/25 11:08:18;;;;;;;;;;;;;;;-144.99;100.00;52537.78;4991799;28;19937;-72
2024/01/25 11:10:49;;;;;;;;;;;;;;;-144.99;100.00;52521.47;4988764;28;19996;-72
2024/01/25 11:13:15;;;;;;;;;;;;;;;-144.99;100.00;52562.25;4995807;28;20008;-71
2024/01/25 11:15:46;;;;;;;;;;;;;;;-144.99;100.00;52570.38;4998148;28;19926;-70
2024/01/25 11:18:13;;;;;;;;;;;;;;;-144.99;100.00;52554.09;4989169;28;19937;-71
2024/01/25 11:20:40;;;;;;;;;;;;;;;-144.99;100.00;52598.94;4985313;28;20450;-71
2024/01/25 11:23:08;;;;;;;;;;;;;;;-144.99;100.00;52570.38;4991735;28;20346;-72
2024/01/25 11:25:36;;;;;;;;;;;;;;;-144.99;100.00;52554.09;4996248;28;20000;-73
2024/01/25 11:28:03;;;;;;;;;;;;;;;-144.99;100.00;52554.09;4988765;28;20016;-71
2024/01/25 11:30:30;;;;;;;;;;;;;;;-144.99;100.00;52562.25;4993196;28;20277;-70
2024/01/25 11:32:58;;;;;;;;;;;;;;;-144.99;100.00;52574.47;4986102;28;19969;-71
2024/01/25 11:35:25;;;;;;;;;;;;;;;-144.99;100.00;52562.25;4990378;28;20351;-70
2024/01/25 11:37:52;;;;;;;;;;;;;;;-144.99;100.00;52566.31;4990350;28;20404;-71
2024/01/25 11:40:18;;;;;;;;;;;;;;;-144.99;100.00;52550.00;4998516;28;20009;-72
2024/01/25 11:42:48;;;;;;;;;;;;;;;-144.99;100.00;52558.16;4994180;28;19926;-70
2024/01/25 11:45:15;;;;;;;;;;;;;;;-144.99;100.00;52554.09;4989147;28;20017;-71
2024/01/25 11:47:42;;;;;;;;;;;;;;;-144.99;100.00;52570.38;4988586;28;19926;-72
2024/01/25 11:50:12;;;;;;;;;;;;;;;-144.99;99.76;52529.63;4993716;28;19980;-71
2024/01/25 11:52:38;;;;;;;;;;;;;;;-144.99;99.81;52531.66;4990120;28;20027;-71
2024/01/25 11:55:06;;;;;;;;;;;;;;;-144.99;100.00;52584.66;4991265;28;19925;-71
2024/01/25 11:57:33;;;;;;;;;;;;;;;-144.99;100.00;52598.94;4989571;28;19968;-71
2024/01/25 12:00:00;;;;;;;;;;;;;;;-144.99;100.00;52554.09;4989888;28;19930;-71
2024/01/25 12:02:27;;;;;;;;;;;;;;;-144.99;100.00;52545.94;4997521;28;19933;-70
2024/01/25 12:04:55;;;;;;;;;;;;;;;-144.99;100.00;52558.16;4990398;28;20024;-71
2024/01/25 12:07:23;;;;;;;;;;;;;;;-144.99;100.00;52545.94;4986607;28;20040;-71
2024/01/25 12:09:58;;;;;;;;;;;;;;;-144.99;100.00;52582.63;4989336;28;19926;-70
2024/01/25 12:12:24;;;;;;;;;;;;;;;-144.99;100.00;52580.59;4991828;28;20032;-70
2024/01/25 12:14:52;;;;;;;;;;;;;;;-144.99;100.00;52552.03;4988825;28;20380;-71
2024/01/25 12:17:18;;;;;;;;;;;;;;;-144.99;100.00;52541.84;4990149;28;19938;-70